Airfield :
LOGIN :

Register | Disclaimer

   EN    FR    IT 

 










Legend :    VFR   Marginal VFR   IFR   Intensive IFR   Very Intensive IFR
Visi :
Ceiling :
>= 8 km
>= 3000ft
5 to 8 km
1000 to 3000 ft
1500m to 5 km
500 to 1000 ft
800 to 1500m
200 to 500 ft
< 800m
< 200 ft
Symbols :   Thunderstorms  Fog  Heavy snow  Heavy precipitations  Wind > 20 kt
SIGMETs :     Misc.  Thunderstorms  Icing  Turbulence  Mountain Waves  Volcanic Ashes







- Airport Elevation : 1548 ft


LKNA - Náměšť Air Base

CURRENT METAR :
  • 122300Z 08004KT 5000 BR NSC 08/07 Q1023 RMK WHT

EXPIRED METARs :
  • 122200Z 08006KT 6000 NSC 08/07 Q1023 RMK WHT
  • 122100Z 05003KT 010V070 6000 FEW022 08/07 Q1023 RMK WHT
  • 122000Z 08005KT 6000 FEW023 09/07 Q1023 NOSIG RMK WHT WHT

TAF TAF LKNA
Valid from the 12 at 18:00 until the 13 at 18:00 UTC


121700Z 1218/1318 13004KT 3500 BR BKN015
BECMG 1218/1221 VRB02KT 1200 BR OVC003
TEMPO 1219/1307 0400 FG VV001
BECMG 1310/1312 18006KT 3000 BKN010
BECMG 1314/1316 30006KT 7000 SCT020
No reported NOTAMs for that airfield.



MET'MAP, your aeronautical weather chart ! - Copyright ORBIFLY December 2007 - Disclaimer

ORBIFLY MET'MAP TEAM :

Programming & Development : Alexandra Zaïnal
Concept & Development : Baudouin d'Aumeries
Co-Development & Prog : Marc-Olivier Méhu
Technical & hardware support : Manuel Goepfert

Contact : metmap@orbifly.com




SOURCES & CREDITS :

   NOAA